Time;durP1;ratioP1;P1;durP2;ratioP2;P2;SDS_P1;SDS_P2;PMS_P1;PMS_P2;Temp;Humidity;BMP_temperature;BMP_pressure;BME280_temperature;BME280_humidity;BME280_pressure;Samples;Min_cycle;Max_cycle;Signal;HPM_P1;HPM_P2
2022/12/02 00:01:28;;;;;;;43.00;30.80;;;9.90;1.00;;;;;;5007997;28;20144;-63
2022/12/02 00:03:55;;;;;;;48.22;34.25;;;9.90;1.00;;;;;;5023149;28;20033;-63
2022/12/02 00:06:31;;;;;;;50.78;36.35;;;9.90;1.00;;;;;;5018002;28;20443;-63
2022/12/02 00:09:23;;;;;;;48.30;34.10;;;9.80;1.00;;;;;;5022807;28;20045;-62
2022/12/02 00:11:49;;;;;;;48.70;33.72;;;9.90;1.00;;;;;;5006961;28;20034;-62
2022/12/02 00:14:21;;;;;;;46.45;33.28;;;9.90;1.00;;;;;;5015893;28;20021;-62
2022/12/02 00:16:47;;;;;;;44.42;32.80;;;9.90;1.00;;;;;;5016046;28;20040;-62
2022/12/02 00:19:12;;;;;;;48.35;32.10;;;9.90;1.00;;;;;;5019990;28;20026;-62
2022/12/02 00:21:38;;;;;;;45.17;33.17;;;9.90;1.00;;;;;;5012262;28;20076;-62
2022/12/02 00:24:04;;;;;;;46.53;31.77;;;9.90;1.00;;;;;;5017422;28;20133;-62
2022/12/02 00:26:29;;;;;;;48.92;32.95;;;9.80;1.00;;;;;;5016480;28;20438;-62
2022/12/02 00:28:55;;;;;;;49.60;33.95;;;9.90;1.00;;;;;;5031493;28;20383;-63
2022/12/02 00:31:20;;;;;;;47.30;33.45;;;9.90;1.00;;;;;;5013076;28;20026;-62
2022/12/02 00:33:46;;;;;;;47.97;33.10;;;9.90;1.00;;;;;;5028822;28;20459;-62
2022/12/02 00:36:12;;;;;;;57.17;34.60;;;9.90;1.00;;;;;;5011346;28;20107;-62
2022/12/02 00:38:37;;;;;;;45.67;33.33;;;9.80;1.00;;;;;;5018246;28;20029;-62
2022/12/02 00:41:03;;;;;;;45.75;32.65;;;9.80;1.00;;;;;;5026837;28;20356;-63
2022/12/02 00:46:31;;;;;;;46.78;33.70;;;9.80;1.00;;;;;;5025033;28;20120;-63
2022/12/02 00:49:01;;;;;;;49.38;32.42;;;9.80;1.00;;;;;;5025434;28;20049;-62
2022/12/02 00:51:28;;;;;;;45.33;31.77;;;9.80;1.00;;;;;;5017973;28;20566;-62
2022/12/02 00:53:53;;;;;;;50.65;32.63;;;9.80;1.00;;;;;;5024640;28;20028;-62
2022/12/02 00:56:19;;;;;;;46.90;31.90;;;9.90;1.00;;;;;;5026082;28;20030;-62
2022/12/02 00:58:44;;;;;;;45.40;31.63;;;9.90;1.00;;;;;;5028973;28;20067;-63
2022/12/02 01:01:10;;;;;;;42.65;30.80;;;9.90;1.00;;;;;;5009808;28;20061;-63
2022/12/02 01:03:36;;;;;;;42.45;30.95;;;9.90;1.00;;;;;;5019201;28;20412;-62
2022/12/02 01:06:02;;;;;;;44.08;31.10;;;9.80;1.00;;;;;;5015038;28;20038;-63
2022/12/02 01:08:27;;;;;;;43.65;31.02;;;9.80;1.00;;;;;;5031313;28;20029;-63
2022/12/02 01:10:54;;;;;;;45.58;31.98;;;9.80;1.00;;;;;;5019614;28;20496;-63
2022/12/02 01:13:20;;;;;;;47.65;32.20;;;9.80;1.00;;;;;;5024236;28;20080;-63
2022/12/02 01:15:46;;;;;;;42.22;30.17;;;9.80;1.00;;;;;;5022229;28;20026;-63
2022/12/02 01:18:12;;;;;;;43.03;31.05;;;9.70;1.00;;;;;;5025657;28;20497;-63
2022/12/02 01:20:37;;;;;;;45.77;32.20;;;9.60;1.00;;;;;;5015593;28;20018;-63
2022/12/02 01:23:03;;;;;;;45.17;31.98;;;9.60;1.00;;;;;;5018088;28;20041;-63
2022/12/02 01:25:28;;;;;;;41.73;30.37;;;9.60;1.00;;;;;;5019279;28;20022;-63
2022/12/02 01:27:54;;;;;;;47.28;31.85;;;9.70;1.00;;;;;;5023756;28;20072;-63
2022/12/02 01:30:20;;;;;;;43.05;30.25;;;9.80;1.00;;;;;;5027634;28;20021;-63
2022/12/02 01:32:45;;;;;;;43.92;30.98;;;9.60;1.00;;;;;;5010738;28;20030;-63
2022/12/02 01:35:11;;;;;;;43.63;31.30;;;9.70;1.00;;;;;;5010881;28;20033;-63
2022/12/02 01:37:37;;;;;;;45.20;30.63;;;9.70;1.00;;;;;;5028666;28;20022;-63
2022/12/02 01:40:04;;;;;;;41.80;31.40;;;9.70;1.00;;;;;;5027493;28;20468;-63
2022/12/02 01:42:30;;;;;;;43.83;31.17;;;9.80;1.00;;;;;;5031825;28;20108;-63
2022/12/02 01:44:55;;;;;;;48.88;32.08;;;9.70;1.00;;;;;;5016772;28;20444;-63
2022/12/02 01:47:21;;;;;;;48.25;32.90;;;9.80;1.00;;;;;;5015206;28;20045;-63
2022/12/02 01:49:47;;;;;;;42.42;29.27;;;9.70;1.00;;;;;;5028862;28;20033;-63
2022/12/02 01:52:15;;;;;;;40.80;30.40;;;9.80;1.00;;;;;;5025383;28;20522;-63
2022/12/02 01:54:41;;;;;;;40.90;29.75;;;9.80;1.00;;;;;;5019469;28;20461;-63
2022/12/02 01:57:11;;;;;;;41.13;29.30;;;9.80;1.00;;;;;;5025361;28;20053;-63
2022/12/02 01:59:38;;;;;;;37.00;29.15;;;9.70;1.00;;;;;;5034418;28;20028;-63
2022/12/02 02:02:26;;;;;;;42.65;29.85;;;9.70;1.00;;;;;;5022809;28;20081;-63
2022/12/02 02:04:57;;;;;;;41.83;29.67;;;9.70;1.00;;;;;;5020767;28;20053;-63
2022/12/02 02:07:23;;;;;;;38.83;30.30;;;9.60;1.00;;;;;;5013816;28;20064;-63
2022/12/02 02:09:49;;;;;;;39.17;30.25;;;9.60;1.00;;;;;;5026255;28;20061;-63
2022/12/02 02:12:15;;;;;;;40.90;31.15;;;9.60;1.00;;;;;;5023900;28;20535;-63
2022/12/02 02:14:40;;;;;;;39.63;28.92;;;9.70;1.00;;;;;;5018176;28;20080;-63
2022/12/02 02:17:07;;;;;;;41.90;30.15;;;9.70;1.00;;;;;;5029810;28;20108;-63
2022/12/02 02:19:33;;;;;;;41.13;28.55;;;9.70;1.00;;;;;;5013612;28;20026;-63
2022/12/02 02:22:00;;;;;;;41.25;31.40;;;9.70;1.00;;;;;;5015781;28;20045;-63
2022/12/02 02:24:26;;;;;;;41.72;30.20;;;9.70;1.00;;;;;;5018827;28;20044;-63
2022/12/02 02:26:51;;;;;;;41.72;29.08;;;9.60;1.00;;;;;;5021898;28;20422;-63
2022/12/02 02:29:17;;;;;;;40.45;27.55;;;9.70;1.00;;;;;;5033859;28;20021;-63
2022/12/02 02:31:43;;;;;;;40.75;28.42;;;9.60;1.00;;;;;;5019992;28;20152;-63
2022/12/02 02:34:09;;;;;;;38.92;30.02;;;9.60;1.00;;;;;;5011423;28;20025;-63
2022/12/02 02:36:34;;;;;;;39.40;30.20;;;9.60;1.00;;;;;;5016070;28;20116;-63
2022/12/02 02:39:01;;;;;;;42.95;29.52;;;9.60;1.00;;;;;;5032276;28;20377;-63
2022/12/02 02:41:27;;;;;;;40.13;29.17;;;9.50;1.00;;;;;;5029262;28;20034;-62
2022/12/02 02:43:53;;;;;;;42.50;29.83;;;9.60;1.00;;;;;;5017099;28;20064;-62
2022/12/02 02:46:19;;;;;;;40.75;28.50;;;9.60;1.00;;;;;;5024544;28;20033;-62
2022/12/02 02:48:46;;;;;;;36.78;28.10;;;9.50;1.00;;;;;;5014249;28;20137;-62
2022/12/02 02:51:12;;;;;;;36.97;26.90;;;9.40;1.00;;;;;;5011215;28;20052;-61
2022/12/02 02:53:39;;;;;;;39.45;27.90;;;9.60;1.00;;;;;;5011521;28;20029;-62
2022/12/02 02:56:05;;;;;;;34.80;26.97;;;9.50;1.00;;;;;;5014141;28;20356;-62
2022/12/02 02:58:33;;;;;;;37.53;27.75;;;9.50;1.00;;;;;;5011569;28;20022;-62
2022/12/02 03:01:09;;;;;;;37.60;26.83;;;9.30;1.00;;;;;;5011667;28;20112;-61
2022/12/02 03:03:39;;;;;;;36.37;25.40;;;9.50;1.00;;;;;;5008810;28;20485;-62
2022/12/02 03:06:08;;;;;;;35.55;25.35;;;9.40;1.00;;;;;;5005064;28;20042;-62
2022/12/02 03:08:35;;;;;;;34.65;26.52;;;9.50;1.00;;;;;;5012112;28;20038;-62
2022/12/02 03:11:02;;;;;;;36.78;25.85;;;9.60;1.00;;;;;;5017988;28;20387;-62
2022/12/02 03:13:30;;;;;;;38.55;26.48;;;9.50;1.00;;;;;;5026499;28;20123;-62
2022/12/02 03:15:55;;;;;;;36.50;25.98;;;9.50;1.00;;;;;;5032860;28;20359;-62
2022/12/02 03:18:21;;;;;;;34.47;25.40;;;9.60;1.00;;;;;;5017530;28;20026;-62
2022/12/02 03:20:47;;;;;;;37.58;25.50;;;9.60;1.00;;;;;;5004581;28;20121;-62
2022/12/02 03:23:13;;;;;;;33.53;26.10;;;9.60;1.00;;;;;;5022807;28;20022;-62
2022/12/02 03:25:39;;;;;;;33.23;24.77;;;9.50;1.00;;;;;;5012526;28;20259;-62
2022/12/02 03:28:05;;;;;;;35.60;24.97;;;9.50;1.00;;;;;;5027457;28;20045;-62
2022/12/02 03:30:31;;;;;;;32.27;23.57;;;9.30;1.00;;;;;;5011810;28;20022;-63
2022/12/02 03:32:57;;;;;;;29.17;23.23;;;9.40;1.00;;;;;;5016851;28;20118;-62
2022/12/02 03:35:23;;;;;;;34.70;23.27;;;9.50;1.00;;;;;;5022212;28;20081;-62
2022/12/02 03:37:49;;;;;;;33.50;22.75;;;9.40;1.00;;;;;;5023095;28;20425;-61
2022/12/02 03:40:15;;;;;;;31.25;23.65;;;9.30;1.00;;;;;;5018018;28;20053;-62
2022/12/02 03:42:41;;;;;;;30.88;23.73;;;9.40;1.00;;;;;;5020143;28;20040;-62
2022/12/02 03:45:08;;;;;;;30.60;22.87;;;9.40;1.00;;;;;;5028885;28;20113;-61
2022/12/02 03:47:33;;;;;;;31.17;23.00;;;9.40;1.00;;;;;;5032147;28;20040;-61
2022/12/02 03:49:59;;;;;;;31.77;22.97;;;9.50;1.00;;;;;;5026360;28;20025;-57
2022/12/02 03:52:26;;;;;;;33.40;23.67;;;9.50;1.00;;;;;;5015171;28;20033;-62
2022/12/02 03:54:52;;;;;;;27.37;22.40;;;9.50;1.00;;;;;;5023728;28;20030;-62
2022/12/02 03:57:18;;;;;;;33.22;23.98;;;9.50;1.00;;;;;;5028394;28;20518;-61
2022/12/02 03:59:43;;;;;;;32.30;23.50;;;9.40;1.00;;;;;;5018425;28;20076;-62
2022/12/02 04:02:09;;;;;;;28.50;21.92;;;9.40;1.00;;;;;;5011798;28;20025;-62
2022/12/02 04:04:34;;;;;;;33.83;23.58;;;9.30;1.00;;;;;;5022895;28;20036;-61
2022/12/02 04:07:00;;;;;;;30.27;21.80;;;9.40;1.00;;;;;;5032147;28;20048;-61
2022/12/02 04:09:26;;;;;;;28.65;23.05;;;9.50;1.00;;;;;;5016156;28;20025;-62
2022/12/02 04:11:51;;;;;;;30.17;22.63;;;9.40;1.00;;;;;;5020339;28;20114;-62
2022/12/02 04:14:17;;;;;;;30.38;22.00;;;9.50;1.00;;;;;;5031786;28;20103;-61
2022/12/02 04:16:51;;;;;;;29.33;21.55;;;9.50;1.00;;;;;;5032070;28;20029;-61
2022/12/02 04:19:17;;;;;;;30.10;20.83;;;9.40;1.00;;;;;;5017500;28;20026;-61
2022/12/02 04:21:43;;;;;;;26.60;21.47;;;9.50;1.00;;;;;;5021545;28;20032;-62
2022/12/02 04:24:08;;;;;;;28.55;20.70;;;9.50;1.00;;;;;;5020185;28;20486;-62
2022/12/02 04:26:34;;;;;;;33.90;21.80;;;9.50;1.00;;;;;;5029639;28;20060;-62
2022/12/02 04:28:59;;;;;;;28.33;20.57;;;9.50;1.00;;;;;;5013229;28;20026;-62
2022/12/02 04:31:25;;;;;;;29.97;21.17;;;9.40;1.00;;;;;;5016687;28;20041;-62
2022/12/02 04:33:50;;;;;;;26.20;21.90;;;9.40;1.00;;;;;;5023421;28;20029;-62
2022/12/02 04:36:16;;;;;;;26.27;19.90;;;9.50;1.00;;;;;;5025207;28;20049;-62
2022/12/02 04:38:42;;;;;;;29.63;21.13;;;9.40;1.00;;;;;;5008729;28;20022;-62
2022/12/02 04:41:07;;;;;;;26.20;21.50;;;9.50;1.00;;;;;;5013271;28;20088;-62
2022/12/02 04:43:33;;;;;;;30.90;21.80;;;9.50;1.00;;;;;;5022154;28;20104;-62
2022/12/02 04:45:58;;;;;;;28.98;20.92;;;9.50;1.00;;;;;;5013000;28;20402;-62
2022/12/02 04:48:24;;;;;;;28.33;20.97;;;9.50;1.00;;;;;;5023574;28;20025;-62
2022/12/02 04:50:49;;;;;;;27.27;21.40;;;9.40;1.00;;;;;;5029331;28;20042;-62
2022/12/02 04:53:15;;;;;;;28.60;20.50;;;9.40;1.00;;;;;;5031552;28;20069;-62
2022/12/02 04:55:42;;;;;;;28.97;21.13;;;9.30;1.00;;;;;;5020992;28;20056;-62
2022/12/02 04:58:08;;;;;;;29.47;20.83;;;9.30;1.00;;;;;;5018240;28;20030;-62
2022/12/02 05:00:33;;;;;;;27.17;20.87;;;9.40;1.00;;;;;;5021600;28;20488;-63
2022/12/02 05:09:43;;;;;;;24.80;19.77;;;9.30;1.00;;;;;;5010916;28;20087;-62
2022/12/02 05:12:09;;;;;;;25.17;20.27;;;9.30;1.00;;;;;;5010640;28;20117;-62
2022/12/02 05:14:35;;;;;;;27.07;19.33;;;9.30;1.00;;;;;;5019592;28;20030;-62
2022/12/02 05:17:00;;;;;;;26.97;20.53;;;9.30;1.00;;;;;;5035260;28;20160;-62
2022/12/02 05:19:26;;;;;;;28.80;19.33;;;9.30;1.00;;;;;;5024460;28;20029;-62
2022/12/02 05:21:51;;;;;;;28.27;18.93;;;9.30;1.00;;;;;;5016436;28;20034;-63
2022/12/02 05:24:17;;;;;;;27.77;20.20;;;9.30;1.00;;;;;;5019073;28;20029;-63
2022/12/02 05:26:43;;;;;;;26.90;19.70;;;9.30;1.00;;;;;;5029851;28;20048;-63
2022/12/02 05:29:08;;;;;;;27.33;19.55;;;9.30;1.00;;;;;;5016236;28;20018;-62
2022/12/02 05:31:34;;;;;;;28.90;19.10;;;9.30;1.00;;;;;;5025160;28;20498;-62
2022/12/02 05:33:59;;;;;;;25.00;19.83;;;9.20;1.00;;;;;;5021122;28;20022;-62
2022/12/02 05:36:25;;;;;;;27.13;20.07;;;9.30;1.00;;;;;;5034895;28;20033;-62
2022/12/02 05:38:50;;;;;;;26.08;19.65;;;9.20;1.00;;;;;;5024916;28;20052;-63
2022/12/02 05:41:16;;;;;;;25.40;18.73;;;9.20;1.00;;;;;;5016237;28;20087;-63
2022/12/02 05:43:42;;;;;;;25.57;19.03;;;9.10;1.00;;;;;;5021532;28;20108;-61
2022/12/02 05:46:16;;;;;;;26.48;19.58;;;9.20;1.00;;;;;;5013426;28;20038;-62
2022/12/02 05:48:43;;;;;;;25.75;20.27;;;9.30;1.00;;;;;;5020668;28;20092;-62
2022/12/02 05:51:13;;;;;;;29.17;20.20;;;9.30;1.00;;;;;;5012337;28;20046;-62
2022/12/02 05:53:43;;;;;;;31.55;22.23;;;9.30;1.00;;;;;;5032741;28;20465;-62
2022/12/02 05:56:20;;;;;;;27.83;20.30;;;9.30;1.00;;;;;;5012472;28;20088;-62
2022/12/02 05:58:45;;;;;;;31.33;22.13;;;9.30;1.00;;;;;;5013332;28;20061;-62
2022/12/02 06:01:46;;;;;;;31.83;22.63;;;9.30;1.00;;;;;;5022532;28;20441;-62
2022/12/02 06:04:16;;;;;;;30.07;21.80;;;9.30;1.00;;;;;;5010412;28;20522;-63
2022/12/02 06:06:42;;;;;;;31.20;22.08;;;9.30;1.00;;;;;;5023990;28;20125;-63
2022/12/02 06:09:29;;;;;;;32.53;21.87;;;9.30;1.00;;;;;;5018457;28;20116;-62
2022/12/02 06:11:55;;;;;;;34.60;23.57;;;9.30;1.00;;;;;;5009017;28;20383;-62
2022/12/02 06:14:24;;;;;;;32.23;22.77;;;9.20;1.00;;;;;;5030252;28;20052;-62
2022/12/02 06:16:52;;;;;;;31.57;21.87;;;9.30;1.00;;;;;;5013185;28;20026;-61
2022/12/02 06:19:36;;;;;;;33.17;22.63;;;9.20;1.00;;;;;;5028028;28;20036;-62
2022/12/02 06:22:02;;;;;;;31.23;23.00;;;9.20;1.00;;;;;;5032773;28;20026;-62
2022/12/02 06:24:31;;;;;;;33.70;22.93;;;9.30;1.00;;;;;;5034000;28;20408;-62
2022/12/02 06:26:59;;;;;;;32.47;23.83;;;9.30;1.00;;;;;;5026380;28;20041;-62
2022/12/02 06:29:27;;;;;;;34.28;23.10;;;9.30;1.00;;;;;;5033737;28;20482;-62
2022/12/02 06:31:53;;;;;;;33.63;23.80;;;9.40;1.00;;;;;;5034037;28;20017;-62
2022/12/02 06:34:41;;;;;;;34.80;23.30;;;9.40;1.00;;;;;;5033921;28;20029;-62
2022/12/02 06:37:16;;;;;;;34.90;24.33;;;9.20;1.00;;;;;;5009537;28;20057;-62
2022/12/02 06:39:45;;;;;;;34.83;23.77;;;9.30;1.00;;;;;;5033895;28;20030;-62
2022/12/02 06:42:31;;;;;;;33.55;23.25;;;9.30;1.00;;;;;;5021592;28;20038;-62
2022/12/02 06:45:12;;;;;;;37.75;25.05;;;9.30;1.00;;;;;;5032251;28;20101;-62
2022/12/02 06:47:48;;;;;;;38.28;25.33;;;9.20;1.00;;;;;;5033477;28;20037;-62
2022/12/02 06:50:19;;;;;;;34.88;24.15;;;9.30;1.00;;;;;;5033124;28;20049;-63
2022/12/02 06:52:45;;;;;;;30.10;22.73;;;9.30;1.00;;;;;;5033543;28;20022;-63
2022/12/02 06:55:32;;;;;;;32.77;24.33;;;9.30;1.00;;;;;;5028673;28;20029;-63
2022/12/02 06:58:20;;;;;;;37.03;24.93;;;9.30;1.00;;;;;;5033195;28;20040;-63
2022/12/02 07:00:46;;;;;;;34.23;23.23;;;9.30;1.00;;;;;;5029722;28;20033;-63
2022/12/02 07:03:29;;;;;;;32.70;24.07;;;9.30;1.00;;;;;;5033177;28;20448;-63
2022/12/02 07:06:12;;;;;;;33.67;24.43;;;9.20;1.00;;;;;;5030634;28;20029;-63
2022/12/02 07:08:37;;;;;;;34.80;24.80;;;9.40;1.00;;;;;;5033075;28;20107;-63
2022/12/02 07:11:04;;;;;;;32.05;21.77;;;9.50;1.00;;;;;;5019313;28;20474;-63
2022/12/02 07:13:30;;;;;;;34.08;25.23;;;9.30;1.00;;;;;;5014262;28;20048;-62
2022/12/02 07:15:55;;;;;;;33.05;22.80;;;9.40;1.00;;;;;;5032915;28;20483;-62
2022/12/02 07:22:21;;;;;;;33.53;23.40;;;9.40;1.00;;;;;;5009821;28;20144;-62
2022/12/02 07:25:06;;;;;;;37.77;23.20;;;9.40;1.00;;;;;;4996211;28;20029;-62
2022/12/02 07:27:35;;;;;;;35.80;23.05;;;9.40;1.00;;;;;;5025494;28;20036;-63
2022/12/02 07:30:15;;;;;;;31.98;23.50;;;9.50;1.00;;;;;;5031700;28;20305;-63
2022/12/02 07:32:41;;;;;;;28.73;20.98;;;9.30;1.00;;;;;;5031063;28;20056;-63
2022/12/02 07:35:07;;;;;;;34.00;20.70;;;9.40;1.00;;;;;;5031522;28;20092;-63
2022/12/02 07:37:32;;;;;;;27.92;19.13;;;9.50;1.00;;;;;;5032258;28;20065;-63
2022/12/02 07:39:58;;;;;;;24.13;17.70;;;9.50;1.00;;;;;;5032607;28;20084;-63
2022/12/02 07:42:23;;;;;;;24.10;16.30;;;9.60;1.00;;;;;;5024110;28;20109;-63
2022/12/02 07:44:49;;;;;;;25.10;17.33;;;9.60;1.00;;;;;;5026314;28;20026;-63
2022/12/02 07:47:15;;;;;;;29.30;17.43;;;9.70;1.00;;;;;;5011236;28;20034;-63
2022/12/02 07:49:40;;;;;;;19.75;15.38;;;9.70;1.00;;;;;;5003091;28;20026;-63
2022/12/02 07:52:06;;;;;;;23.60;17.30;;;9.60;1.00;;;;;;5012526;28;20140;-63
2022/12/02 07:54:32;;;;;;;23.95;16.88;;;9.70;1.00;;;;;;5017736;28;20030;-63
2022/12/02 07:56:58;;;;;;;24.58;17.52;;;9.70;1.00;;;;;;5019711;28;20029;-63
2022/12/02 07:59:23;;;;;;;17.55;13.80;;;9.80;1.00;;;;;;5030368;28;20033;-64
2022/12/02 08:01:49;;;;;;;24.17;16.83;;;9.70;1.00;;;;;;5023487;28;20034;-63
2022/12/02 08:04:14;;;;;;;20.27;15.60;;;9.60;1.00;;;;;;5030201;28;20495;-62
2022/12/02 08:06:40;;;;;;;27.30;16.23;;;9.70;1.00;;;;;;5020175;28;20087;-63
2022/12/02 08:09:09;;;;;;;23.13;15.80;;;9.80;1.00;;;;;;5021816;28;20026;-63
2022/12/02 08:11:35;;;;;;;21.98;14.00;;;9.80;1.00;;;;;;5014975;28;20107;-63
2022/12/02 08:14:01;;;;;;;23.30;15.50;;;9.80;1.00;;;;;;5031987;28;20026;-63
2022/12/02 08:16:27;;;;;;;19.85;14.55;;;9.90;1.00;;;;;;5031957;28;20029;-63
2022/12/02 08:18:53;;;;;;;19.30;12.70;;;9.90;1.00;;;;;;5030270;28;20056;-63
2022/12/02 08:21:18;;;;;;;19.63;14.47;;;9.80;1.00;;;;;;5020948;28;20033;-63
2022/12/02 08:23:44;;;;;;;21.27;14.35;;;9.80;1.00;;;;;;5020019;28;20140;-62
2022/12/02 08:26:09;;;;;;;21.45;14.43;;;9.80;1.00;;;;;;5031788;28;20033;-63
2022/12/02 08:28:35;;;;;;;22.58;14.40;;;9.80;1.00;;;;;;5027023;28;20032;-63
2022/12/02 08:31:00;;;;;;;22.83;16.08;;;9.80;1.00;;;;;;5019611;28;20100;-62
2022/12/02 08:33:26;;;;;;;22.83;14.75;;;10.00;1.00;;;;;;5028520;28;20038;-63
2022/12/02 08:35:52;;;;;;;20.88;13.40;;;10.10;1.00;;;;;;5032088;28;20033;-62
2022/12/02 08:38:18;;;;;;;17.10;13.13;;;9.90;1.00;;;;;;5031673;28;20479;-63
2022/12/02 08:40:43;;;;;;;18.88;13.63;;;10.00;1.00;;;;;;5031859;28;20030;-62
2022/12/02 08:43:09;;;;;;;19.07;13.23;;;9.90;1.00;;;;;;5027285;28;20026;-62
2022/12/02 08:45:35;;;;;;;18.35;12.60;;;10.00;1.00;;;;;;5030228;28;20127;-63
2022/12/02 08:48:00;;;;;;;19.88;13.30;;;10.00;1.00;;;;;;5031835;28;20029;-63
2022/12/02 08:50:26;;;;;;;18.17;11.48;;;10.10;1.00;;;;;;5033216;28;20068;-63
2022/12/02 08:52:52;;;;;;;15.52;12.85;;;10.10;1.00;;;;;;5032404;28;20034;-63
2022/12/02 08:55:18;;;;;;;17.42;12.60;;;10.20;1.00;;;;;;5034919;28;20034;-63
2022/12/02 08:57:44;;;;;;;17.95;12.55;;;10.20;1.00;;;;;;5022666;28;20044;-63
2022/12/02 09:00:10;;;;;;;20.55;13.55;;;10.10;1.00;;;;;;5034771;28;20033;-63
2022/12/02 09:02:36;;;;;;;14.85;12.43;;;10.20;1.00;;;;;;5020704;28;20113;-63
2022/12/02 09:05:02;;;;;;;17.42;12.48;;;10.20;1.00;;;;;;5035671;28;20029;-63
2022/12/02 09:07:28;;;;;;;15.05;11.20;;;10.30;1.00;;;;;;5035649;28;20099;-62
2022/12/02 09:09:54;;;;;;;18.95;13.23;;;10.20;1.00;;;;;;5034076;28;20037;-63
2022/12/02 09:12:19;;;;;;;17.55;11.82;;;10.20;1.00;;;;;;5015413;28;20018;-64
2022/12/02 09:14:45;;;;;;;15.63;12.20;;;10.20;1.00;;;;;;5026461;28;20121;-63
2022/12/02 09:17:10;;;;;;;18.23;13.40;;;10.30;1.00;;;;;;5035439;28;20020;-63
2022/12/02 09:19:36;;;;;;;18.15;12.48;;;10.30;1.00;;;;;;5035337;28;20146;-63
2022/12/02 09:22:02;;;;;;;15.40;12.35;;;10.30;1.00;;;;;;5035150;28;20163;-63
2022/12/02 09:24:27;;;;;;;19.25;12.45;;;10.30;1.00;;;;;;5035172;28;20029;-63
2022/12/02 09:26:53;;;;;;;14.35;10.93;;;10.40;1.00;;;;;;5033801;28;20128;-63
2022/12/02 09:29:18;;;;;;;15.32;9.43;;;10.30;1.00;;;;;;5034583;28;20040;-63
2022/12/02 09:31:44;;;;;;;14.88;9.75;;;10.30;1.00;;;;;;5035291;28;20125;-63
2022/12/02 09:34:10;;;;;;;13.27;9.98;;;10.20;1.00;;;;;;5035042;28;20037;-63
2022/12/02 09:36:35;;;;;;;12.57;8.80;;;10.40;1.00;;;;;;5026159;28;20384;-63
2022/12/02 09:39:01;;;;;;;11.23;9.60;;;10.50;1.00;;;;;;5030185;28;20109;-63
2022/12/02 09:41:27;;;;;;;10.88;8.80;;;10.30;1.00;;;;;;5024975;28;20033;-63
2022/12/02 09:43:53;;;;;;;11.45;8.68;;;10.50;1.00;;;;;;5033444;28;20497;-63
2022/12/02 09:46:19;;;;;;;12.85;9.38;;;10.60;1.00;;;;;;5034691;28;20033;-62
2022/12/02 09:48:45;;;;;;;12.45;8.50;;;10.60;1.00;;;;;;5034428;28;20060;-63
2022/12/02 09:51:11;;;;;;;12.27;8.85;;;10.70;1.00;;;;;;5024119;28;20077;-62
2022/12/02 09:53:39;;;;;;;13.93;8.77;;;10.70;1.00;;;;;;5034846;28;20079;-63
2022/12/02 09:56:09;;;;;;;12.32;9.23;;;10.60;1.00;;;;;;5027402;28;20045;-63
2022/12/02 09:58:37;;;;;;;13.85;9.07;;;10.70;1.00;;;;;;5028426;28;20022;-63
2022/12/02 10:01:09;;;;;;;14.68;9.25;;;10.70;1.00;;;;;;5033040;28;20030;-63
2022/12/02 10:03:34;;;;;;;16.88;9.90;;;10.40;1.00;;;;;;5034619;28;20064;-63
2022/12/02 10:06:05;;;;;;;14.05;8.88;;;10.70;1.00;;;;;;5034395;28;20443;-63
2022/12/02 10:08:31;;;;;;;14.75;10.48;;;10.70;1.00;;;;;;5034538;28;20574;-62
2022/12/02 10:11:35;;;;;;;13.38;9.50;;;10.90;1.00;;;;;;5029481;28;20109;-63
2022/12/02 10:14:05;;;;;;;12.88;9.88;;;10.90;1.00;;;;;;5029182;28;20470;-63
2022/12/02 10:16:32;;;;;;;13.57;9.95;;;10.90;1.00;;;;;;5034297;28;20009;-63
2022/12/02 10:19:04;;;;;;;13.40;10.02;;;10.90;1.00;;;;;;5034369;28;20033;-63
2022/12/02 10:21:29;;;;;;;12.00;10.40;;;10.90;1.00;;;;;;5003034;28;20038;-63
2022/12/02 10:23:58;;;;;;;14.20;11.43;;;10.90;1.00;;;;;;5027074;28;20102;-63
2022/12/02 10:26:24;;;;;;;16.08;13.93;;;11.00;1.00;;;;;;5034055;28;20032;-63
2022/12/02 10:29:07;;;;;;;12.90;11.40;;;10.90;1.00;;;;;;5034119;28;20022;-63
2022/12/02 10:31:33;;;;;;;15.98;13.68;;;11.00;1.00;;;;;;5031882;28;20079;-62
2022/12/02 10:34:05;;;;;;;14.88;11.38;;;11.10;1.00;;;;;;5025417;28;20026;-63
2022/12/02 10:36:35;;;;;;;12.82;10.13;;;11.10;1.00;;;;;;5028534;28;20053;-63
2022/12/02 10:39:20;;;;;;;11.43;9.45;;;10.90;1.00;;;;;;5033974;28;20030;-63
2022/12/02 10:42:07;;;;;;;13.02;9.43;;;10.90;1.00;;;;;;5031975;28;20026;-63
2022/12/02 10:44:41;;;;;;;13.38;10.77;;;11.00;1.00;;;;;;5033774;28;20045;-63
2022/12/02 10:47:17;;;;;;;15.43;10.77;;;11.20;1.00;;;;;;5031440;28;20042;-63
2022/12/02 10:49:47;;;;;;;14.07;10.30;;;11.00;1.00;;;;;;5022140;28;20025;-63
2022/12/02 10:52:14;;;;;;;13.07;10.40;;;10.90;1.00;;;;;;5019397;28;20454;-63
2022/12/02 10:54:47;;;;;;;14.23;10.02;;;11.10;1.00;;;;;;5026084;28;20014;-63
2022/12/02 10:57:21;;;;;;;16.33;11.68;;;11.10;1.00;;;;;;5013190;28;20045;-63
2022/12/02 10:59:46;;;;;;;11.52;9.70;;;11.30;1.00;;;;;;5013802;28;20032;-63
2022/12/02 11:02:23;;;;;;;11.88;9.55;;;11.20;1.00;;;;;;5023769;28;20484;-63
2022/12/02 11:04:48;;;;;;;15.02;11.13;;;11.20;1.00;;;;;;5030953;28;20053;-63
2022/12/02 11:07:16;;;;;;;11.63;8.57;;;11.40;1.00;;;;;;5019167;28;20064;-63
2022/12/02 11:09:46;;;;;;;13.43;11.65;;;11.40;1.00;;;;;;5033397;28;20032;-63
2022/12/02 11:12:54;;;;;;;13.73;10.13;;;11.20;1.00;;;;;;5031232;28;20056;-64
2022/12/02 11:15:49;;;;;;;9.75;8.25;;;11.40;1.00;;;;;;5006262;28;20443;-64
2022/12/02 11:18:24;;;;;;;9.43;7.78;;;11.40;1.00;;;;;;5033391;28;20028;-64
2022/12/02 11:20:54;;;;;;;7.80;6.40;;;11.40;1.00;;;;;;5031686;28;20047;-65
2022/12/02 11:23:24;;;;;;;12.45;8.88;;;11.10;1.00;;;;;;5032982;28;20087;-64
2022/12/02 11:25:52;;;;;;;9.10;7.30;;;11.30;1.00;;;;;;5026896;28;20040;-64
2022/12/02 11:28:17;;;;;;;8.65;6.78;;;11.40;1.00;;;;;;5033031;28;20025;-64
2022/12/02 11:30:45;;;;;;;9.10;7.38;;;11.30;1.00;;;;;;5032890;28;20026;-64
2022/12/02 11:33:13;;;;;;;9.70;7.28;;;11.50;1.00;;;;;;5033158;28;20195;-64
2022/12/02 11:39:56;;;;;;;8.32;6.88;;;11.40;1.00;;;;;;5004349;28;20181;-64
2022/12/02 11:42:30;;;;;;;8.40;6.80;;;11.60;1.00;;;;;;5021954;28;20445;-64
2022/12/02 11:45:14;;;;;;;8.60;6.90;;;11.40;1.00;;;;;;5006352;28;20383;-64
2022/12/02 11:47:41;;;;;;;11.18;8.15;;;11.50;1.00;;;;;;5032672;28;20132;-64
2022/12/02 11:50:15;;;;;;;12.32;7.63;;;11.40;1.00;;;;;;5030421;28;20151;-63
2022/12/02 11:53:00;;;;;;;;;;;11.40;1.00;;;;;;5022095;28;20543;-64
2022/12/02 11:55:39;;;;;;;8.43;6.73;;;11.30;1.00;;;;;;5030724;28;19944;-64
2022/12/02 11:58:19;;;;;;;10.07;7.32;;;11.40;1.00;;;;;;5022289;28;20456;-64
2022/12/02 12:00:59;;;;;;;7.45;6.40;;;11.30;1.00;;;;;;5029143;28;20053;-64
2022/12/02 12:03:25;;;;;;;7.65;6.85;;;11.30;1.00;;;;;;5024124;28;20064;-64
2022/12/02 12:06:06;;;;;;;10.60;8.50;;;11.40;1.00;;;;;;5032161;28;20378;-64
2022/12/02 12:08:32;;;;;;;11.32;8.80;;;11.40;1.00;;;;;;5030703;28;20064;-64
2022/12/02 12:11:20;;;;;;;48.00;20.48;;;11.50;1.00;;;;;;5006251;28;20104;-64
2022/12/02 12:14:12;;;;;;;15.90;9.20;;;11.40;1.00;;;;;;5007729;28;20022;-64
2022/12/02 12:16:41;;;;;;;11.40;8.10;;;11.60;1.00;;;;;;5007982;28;20121;-64
2022/12/02 12:19:14;;;;;;;10.45;8.38;;;11.60;1.00;;;;;;5018114;28;20038;-64
2022/12/02 12:21:51;;;;;;;8.73;6.90;;;11.60;1.00;;;;;;5014595;28;20065;-64
2022/12/02 12:24:21;;;;;;;10.68;8.73;;;11.80;1.00;;;;;;5014986;28;20050;-65
2022/12/02 12:26:49;;;;;;;10.85;8.40;;;11.80;1.00;;;;;;5025160;28;20411;-65
2022/12/02 12:29:16;;;;;;;8.65;7.68;;;11.60;1.00;;;;;;5014365;28;20025;-65
2022/12/02 12:31:43;;;;;;;9.77;8.77;;;11.50;1.00;;;;;;5021394;28;20037;-64
2022/12/02 12:34:09;;;;;;;13.20;9.18;;;11.20;1.00;;;;;;4998666;28;20447;-64
2022/12/02 12:36:35;;;;;;;19.58;14.93;;;11.50;1.00;;;;;;4995904;28;20085;-64
2022/12/02 12:39:01;;;;;;;17.95;10.85;;;11.50;1.00;;;;;;4998831;28;20630;-64
2022/12/02 12:41:27;;;;;;;14.23;10.35;;;11.60;1.00;;;;;;5008827;28;20018;-64
2022/12/02 12:43:52;;;;;;;11.73;9.07;;;11.70;1.00;;;;;;5010474;28;20388;-65
2022/12/02 12:46:18;;;;;;;11.02;9.23;;;11.70;1.00;;;;;;5001921;28;20029;-65
2022/12/02 12:48:43;;;;;;;13.57;9.88;;;11.70;1.00;;;;;;5019493;28;20163;-64
2022/12/02 12:51:09;;;;;;;15.38;11.40;;;11.70;1.00;;;;;;5027666;28;20624;-65
2022/12/02 12:53:35;;;;;;;10.80;9.70;;;11.50;1.00;;;;;;5022941;28;20030;-63
2022/12/02 12:56:04;;;;;;;18.70;12.88;;;11.70;1.00;;;;;;5024912;28;20025;-64
2022/12/02 12:58:30;;;;;;;10.90;8.70;;;11.60;1.00;;;;;;5003552;28;20355;-64
2022/12/02 13:00:55;;;;;;;12.68;9.68;;;11.60;1.00;;;;;;5030694;28;20033;-63
2022/12/02 13:03:21;;;;;;;11.23;8.95;;;11.50;1.00;;;;;;5026044;28;20153;-63
2022/12/02 13:05:47;;;;;;;13.77;10.52;;;11.60;1.00;;;;;;5020953;28;20030;-63
2022/12/02 13:08:12;;;;;;;11.35;9.77;;;11.50;1.00;;;;;;5028720;28;20045;-63
2022/12/02 13:10:38;;;;;;;9.93;8.50;;;11.50;1.00;;;;;;5019017;28;20076;-63